MMTO/TLC METAR and TAF weather

Enter ICAO airport designator
Station Type Date Time Source
MMTO METAR 2019/08/23 14:47 UTC NOAA

MMTO 231447Z 31006KT 7SM SCT012 BKN200 16/10 A3042 RMK SLP115 52002 956 8/102


Station Type Date Time Source
MMTO Decoded METAR 2019/08/23 14:47 UTC NOAA

Station name not available
Aug 23, 2019 - 10:47 AM EDT / 2019.08.23 1447 UTC
Wind: from the NW (310 degrees) at 7 MPH (6 KT):0
Visibility: 7 mile(s):0
Sky conditions: mostly cloudy
Temperature: 60 F (16 C)
Dew Point: 50 F (10 C)
Relative Humidity: 67%
Pressure (altimeter): 30.42 in. Hg (1030 hPa)
Pressure tendency: 0.01 inches (0.2 hPa) higher than three hours ago
ob: MMTO 231447Z 31006KT 7SM SCT012 BKN200 16/10 A3042 RMK SLP115 52002 956 8/102
cycle: 15

Station Type Date Time Source
MMTO TAF 2019/08/23 12:30 UTC NOAA

TAF MMTO 231024Z 2312/2418 33005KT 6SM HZ BKN015 BKN070 TX22/2321Z TN12/2312Z
TEMPO 2312/2314 3SM HZ
FM231800 03010KT 6SM HZ SCT015 BKN070 BKN200
TEMPO 2322/2402 5SM TSRA BKN015CB
FM240200 06010KT 6SM -RA BKN015CB BKN070
FM240600 03005KT 6SM HZ BKN015 BKN070
TEMPO 2412/2415 3SM HZ

Example: see airport list